Time;durP1;ratioP1;P1;durP2;ratioP2;P2;SDS_P1;SDS_P2;PMS_P1;PMS_P2;Temp;Humidity;BMP_temperature;BMP_pressure;BME280_temperature;BME280_humidity;BME280_pressure;Samples;Min_cycle;Max_cycle;Signal;HPM_P1;HPM_P2
2023/04/09 00:02:16;;;;;;;19.88;11.95;;;;;;;9.11;53.29;149587.50;5062644;28;20040;-65
2023/04/09 00:04:42;;;;;;;17.42;11.50;;;;;;;9.12;53.95;149590.06;5044598;28;20349;-65
2023/04/09 00:07:08;;;;;;;21.35;12.68;;;;;;;9.17;53.68;149600.31;5061756;28;20036;-66
2023/04/09 00:09:33;;;;;;;19.25;12.60;;;;;;;9.10;53.27;149584.91;5051985;28;20037;-66
2023/04/09 00:11:59;;;;;;;19.75;13.43;;;;;;;9.06;54.35;149573.41;5044377;28;20033;-65
2023/04/09 00:14:24;;;;;;;21.92;11.82;;;;;;;9.07;54.84;149575.97;5047441;28;20199;-65
2023/04/09 00:16:50;;;;;;;17.48;11.88;;;;;;;9.09;54.41;149581.06;5064517;28;20064;-66
2023/04/09 00:19:16;;;;;;;18.17;12.10;;;;;;;9.02;53.97;149563.16;5045890;28;20036;-65
2023/04/09 00:21:41;;;;;;;17.33;12.32;;;;;;;9.02;53.78;149563.16;5057075;28;20029;-65
2023/04/09 00:24:07;;;;;;;18.25;12.05;;;;;;;9.00;54.49;149559.31;5055528;28;20049;-65
2023/04/09 00:26:33;;;;;;;18.00;12.48;;;;;;;8.93;55.22;149541.38;5048338;28;20246;-65
2023/04/09 00:28:59;;;;;;;20.60;12.50;;;;;;;8.93;54.94;149541.38;5063726;28;20041;-66
2023/04/09 00:31:24;;;;;;;18.15;12.52;;;;;;;8.80;54.61;149509.38;5063662;28;20032;-65
2023/04/09 00:33:50;;;;;;;19.23;12.73;;;;;;;8.86;54.24;149523.44;5049363;28;20037;-66
2023/04/09 00:36:16;;;;;;;19.00;13.02;;;;;;;8.72;54.92;149488.88;5043768;28;20105;-64
2023/04/09 00:38:41;;;;;;;18.50;13.38;;;;;;;8.66;54.63;149473.50;5043809;28;20221;-66
2023/04/09 00:41:07;;;;;;;18.08;13.02;;;;;;;8.62;55.68;149465.84;5044137;28;20025;-65
2023/04/09 00:43:33;;;;;;;16.55;11.88;;;;;;;8.73;55.27;149492.69;5063989;28;20225;-65
2023/04/09 00:46:00;;;;;;;19.73;12.38;;;;;;;8.73;55.00;149492.69;5047807;28;20137;-64
2023/04/09 00:48:26;;;;;;;20.88;12.98;;;;;;;8.74;55.98;149495.28;5054433;28;20020;-65
2023/04/09 00:50:52;;;;;;;23.20;13.38;;;;;;;8.73;56.46;149492.69;5057443;28;20021;-65
2023/04/09 00:53:18;;;;;;;19.13;13.02;;;;;;;8.73;55.95;149491.44;5044007;28;20025;-65
2023/04/09 00:55:44;;;;;;;19.48;13.57;;;;;;;8.68;55.32;149479.94;5063296;28;20104;-66
2023/04/09 00:58:10;;;;;;;15.55;12.48;;;;;;;8.72;54.80;149488.88;5046316;28;20029;-66
2023/04/09 01:00:36;;;;;;;20.55;13.05;;;;;;;8.66;55.80;149474.78;5056146;28;20031;-66
2023/04/09 01:03:05;;;;;;;17.70;13.23;;;;;;;8.63;56.13;149467.09;5055772;28;20064;-65
2023/04/09 01:05:40;;;;;;;21.63;13.18;;;;;;;8.56;56.23;149450.44;5046779;28;20100;-64
2023/04/09 01:08:08;;;;;;;19.17;13.93;;;;;;;8.60;56.32;149459.44;5062804;28;20033;-66
2023/04/09 01:10:40;;;;;;;19.10;13.32;;;;;;;8.56;56.87;149450.44;5043271;28;20214;-65
2023/04/09 01:13:08;;;;;;;18.20;13.25;;;;;;;8.58;56.22;149454.28;5059652;28;20056;-64
2023/04/09 01:15:40;;;;;;;24.88;14.00;;;;;;;8.49;56.03;149431.25;5051605;28;20505;-66
2023/04/09 01:18:33;;;;;;;20.15;14.15;;;;;;;8.44;57.37;149421.00;5051735;28;20051;-66
2023/04/09 01:21:08;;;;;;;17.70;13.57;;;;;;;8.36;57.12;149399.19;5056095;28;20025;-65
2023/04/09 01:23:58;;;;;;;20.45;14.18;;;;;;;8.45;57.65;149422.28;5046971;28;20040;-65
2023/04/09 01:26:53;;;;;;;18.30;13.57;;;;;;;8.50;57.19;149433.84;5063220;28;20092;-64
2023/04/09 01:29:21;;;;;;;20.02;14.57;;;;;;;8.33;56.67;149391.53;5052292;28;20361;-65
2023/04/09 01:31:48;;;;;;;22.17;13.85;;;;;;;8.38;56.76;149405.63;5069928;28;20115;-65
2023/04/09 01:34:15;;;;;;;20.70;14.13;;;;;;;8.23;57.33;149367.19;5048424;28;20065;-64
2023/04/09 01:36:44;;;;;;;21.75;14.63;;;;;;;8.41;57.49;149413.28;5054810;28;20087;-64
2023/04/09 01:39:10;;;;;;;25.60;14.60;;;;;;;8.36;57.77;149400.47;5054456;28;20199;-63
2023/04/09 01:41:36;;;;;;;23.13;14.55;;;;;;;8.33;57.48;149391.53;5045549;28;20027;-63
2023/04/09 01:44:04;;;;;;;22.63;14.90;;;;;;;8.21;57.07;149363.38;5062565;28;20317;-64
2023/04/09 01:46:32;;;;;;;20.52;14.23;;;;;;;8.35;56.82;149397.94;5062615;28;20045;-65
2023/04/09 01:48:58;;;;;;;24.98;15.73;;;;;;;8.41;57.54;149412.03;5062491;28;20025;-65
2023/04/09 01:51:26;;;;;;;21.70;15.68;;;;;;;8.43;57.97;149417.13;5052248;28;20029;-63
2023/04/09 01:53:51;;;;;;;29.17;15.73;;;;;;;8.49;57.03;149431.25;5042784;28;20033;-64
2023/04/09 01:56:17;;;;;;;25.30;15.02;;;;;;;8.46;57.31;149424.84;5043690;28;20067;-65
2023/04/09 01:58:42;;;;;;;22.77;15.85;;;;;;;8.45;57.56;149423.59;5078146;28;20260;-65
2023/04/09 02:01:08;;;;;;;21.88;14.98;;;;;;;8.49;56.82;149431.25;5046052;28;20025;-66
2023/04/09 02:03:43;;;;;;;18.55;14.98;;;;;;;8.48;57.75;149428.69;5042376;28;20040;-66
2023/04/09 02:06:39;;;;;;;24.67;15.38;;;;;;;8.46;58.64;149426.16;5044318;28;20025;-66
2023/04/09 02:09:08;;;;;;;22.42;15.80;;;;;;;8.48;56.96;149430.00;5044262;28;20059;-65
2023/04/09 02:11:39;;;;;;;31.17;16.35;;;;;;;8.44;56.90;149421.00;5063747;28;20041;-65
2023/04/09 02:14:07;;;;;;;26.70;17.63;;;;;;;8.41;57.97;149412.03;5046680;28;20049;-64
2023/04/09 02:16:53;;;;;;;26.45;17.33;;;;;;;8.41;58.36;149412.03;5045990;28;20111;-64
2023/04/09 02:19:19;;;;;;;27.85;17.55;;;;;;;8.33;58.13;149391.53;5062819;28;20029;-64
2023/04/09 02:21:45;;;;;;;30.85;17.88;;;;;;;8.46;58.56;149424.84;5066649;28;20029;-65
2023/04/09 02:24:11;;;;;;;22.08;16.98;;;;;;;8.44;58.20;149421.00;5058147;28;20294;-64
2023/04/09 02:26:36;;;;;;;27.35;17.75;;;;;;;8.39;58.88;149408.13;5046569;28;20025;-64
2023/04/09 02:29:02;;;;;;;26.65;16.77;;;;;;;8.39;58.12;149408.13;5044303;28;20080;-66
2023/04/09 02:31:28;;;;;;;24.80;17.23;;;;;;;8.29;58.39;149382.53;5071517;28;20052;-65
2023/04/09 02:33:53;;;;;;;28.17;17.73;;;;;;;8.40;58.84;149410.72;5071374;28;20067;-65
2023/04/09 02:36:19;;;;;;;24.25;16.85;;;;;;;8.29;57.95;149382.53;5056366;28;20033;-65
2023/04/09 02:38:45;;;;;;;25.05;16.00;;;;;;;8.39;58.47;149408.13;5050658;28;20059;-64
2023/04/09 02:41:10;;;;;;;22.92;16.23;;;;;;;8.29;58.30;149382.53;5063879;28;20037;-64
2023/04/09 02:43:36;;;;;;;25.52;17.30;;;;;;;8.23;58.94;149368.47;5056576;28;20037;-65
2023/04/09 02:46:02;;;;;;;26.48;16.52;;;;;;;8.28;58.24;149380.03;5050822;28;20075;-64
2023/04/09 02:48:27;;;;;;;25.98;16.42;;;;;;;8.23;58.69;149368.47;5055601;28;20037;-65
2023/04/09 02:50:53;;;;;;;23.88;17.45;;;;;;;8.28;58.32;149381.28;5057927;28;20218;-66
2023/04/09 02:53:20;;;;;;;26.30;18.20;;;;;;;8.13;59.40;149342.88;5064561;28;20043;-65
2023/04/09 02:55:46;;;;;;;25.13;16.30;;;;;;;8.18;58.99;149354.38;5045804;28;20025;-64
2023/04/09 02:58:12;;;;;;;24.10;17.13;;;;;;;8.24;59.55;149369.78;5062162;28;20029;-67
2023/04/09 03:00:37;;;;;;;24.48;16.58;;;;;;;8.27;57.92;149378.72;5054416;28;20083;-66
2023/04/09 03:03:03;;;;;;;23.83;16.27;;;;;;;8.20;58.23;149360.78;5052447;28;20096;-66
2023/04/09 03:05:28;;;;;;;23.70;17.60;;;;;;;8.28;59.48;149380.03;5063102;28;20021;-65
2023/04/09 03:07:54;;;;;;;25.05;17.52;;;;;;;8.00;60.13;149310.88;5045836;28;20056;-65
2023/04/09 03:10:20;;;;;;;26.73;17.83;;;;;;;8.02;60.24;149315.97;5058052;28;20021;-64
2023/04/09 03:12:46;;;;;;;27.48;17.58;;;;;;;8.22;59.16;149364.63;5057950;28;20044;-64
2023/04/09 03:15:12;;;;;;;26.30;18.45;;;;;;;8.16;59.58;149349.28;5056845;28;20168;-64
2023/04/09 03:17:38;;;;;;;24.55;16.67;;;;;;;8.23;58.83;149368.47;5044828;28;20345;-65
2023/04/09 03:20:06;;;;;;;30.67;16.88;;;;;;;8.39;58.37;149408.13;5044235;28;20036;-66
2023/04/09 03:22:38;;;;;;;23.08;16.65;;;;;;;8.34;59.23;149395.38;5044722;28;20037;-66
2023/04/09 03:25:04;;;;;;;28.90;18.05;;;;;;;8.30;59.07;149385.13;5060652;28;20128;-65
2023/04/09 03:27:32;;;;;;;27.65;17.50;;;;;;;8.22;59.14;149364.63;5055192;28;20044;-67
2023/04/09 03:29:57;;;;;;;24.25;17.73;;;;;;;8.35;58.76;149397.94;5061509;28;20052;-63
2023/04/09 03:32:23;;;;;;;24.90;17.60;;;;;;;8.27;59.76;149377.44;5078058;28;20217;-64
2023/04/09 03:34:49;;;;;;;26.05;17.02;;;;;;;8.37;58.56;149403.03;5065252;28;20021;-67
2023/04/09 03:37:14;;;;;;;27.13;18.13;;;;;;;8.46;59.72;149426.16;5064258;28;20222;-67
2023/04/09 03:39:40;;;;;;;26.45;17.60;;;;;;;8.49;58.73;149431.25;5053670;28;20048;-67
2023/04/09 03:42:06;;;;;;;28.02;18.67;;;;;;;8.54;59.70;149444.06;5045091;28;20036;-67
2023/04/09 03:44:31;;;;;;;25.30;17.42;;;;;;;8.59;58.67;149456.84;5046407;28;20101;-66
2023/04/09 03:46:57;;;;;;;24.42;18.25;;;;;;;8.65;58.91;149472.25;5065022;28;20032;-65
2023/04/09 03:49:22;;;;;;;24.10;17.10;;;;;;;8.62;58.14;149464.53;5047512;28;20080;-65
2023/04/09 03:51:48;;;;;;;23.58;17.80;;;;;;;8.66;59.03;149474.78;5056635;28;20032;-65
2023/04/09 03:54:14;;;;;;;28.38;17.48;;;;;;;8.57;58.58;149453.03;5055807;28;20083;-66
2023/04/09 03:56:39;;;;;;;27.73;17.88;;;;;;;8.68;57.76;149478.63;5047771;28;20048;-63
2023/04/09 03:59:05;;;;;;;27.40;17.38;;;;;;;8.49;58.18;149431.25;5063802;28;20029;-65
2023/04/09 04:01:31;;;;;;;32.55;18.40;;;;;;;8.65;59.40;149472.25;5046468;28;20048;-65
2023/04/09 04:03:56;;;;;;;26.67;17.85;;;;;;;8.52;57.86;149438.94;5058030;28;20359;-66
2023/04/09 04:06:22;;;;;;;22.13;17.98;;;;;;;8.55;59.28;149447.91;5054875;28;20030;-64
2023/04/09 04:08:47;;;;;;;25.73;18.70;;;;;;;8.55;59.05;149447.91;5048476;28;20102;-64
2023/04/09 04:11:13;;;;;;;23.92;17.63;;;;;;;8.65;58.68;149472.25;5063031;28;20109;-64
2023/04/09 04:13:39;;;;;;;32.17;18.65;;;;;;;8.68;58.07;149479.94;5044548;28;20033;-64
2023/04/09 04:16:08;;;;;;;32.95;19.13;;;;;;;8.59;58.70;149456.84;5044211;28;20052;-64
2023/04/09 04:18:35;;;;;;;26.23;18.45;;;;;;;8.55;58.32;149447.91;5054321;28;20025;-64
2023/04/09 04:21:00;;;;;;;23.17;17.95;;;;;;;8.33;59.45;149391.53;5057646;28;20025;-64
2023/04/09 04:23:26;;;;;;;30.27;19.40;;;;;;;8.29;59.90;149382.53;5044096;28;20226;-64
2023/04/09 04:25:56;;;;;;;25.77;17.83;;;;;;;8.36;59.21;149400.47;5063575;28;20029;-64
2023/04/09 04:28:22;;;;;;;26.38;19.20;;;;;;;8.44;58.69;149419.69;5046433;28;20057;-64
2023/04/09 04:30:48;;;;;;;30.88;18.80;;;;;;;8.40;58.93;149410.72;5056205;28;20047;-64
2023/04/09 04:33:13;;;;;;;26.55;18.17;;;;;;;8.52;59.23;149440.19;5068356;28;20326;-64
2023/04/09 04:35:39;;;;;;;31.75;18.55;;;;;;;8.69;58.96;149482.44;5060342;28;20025;-65
2023/04/09 04:38:04;;;;;;;26.73;18.17;;;;;;;8.75;59.07;149496.53;5044083;28;20036;-63
2023/04/09 04:40:30;;;;;;;30.13;19.42;;;;;;;8.58;58.14;149454.28;5043341;28;20058;-64
2023/04/09 04:42:55;;;;;;;25.92;19.48;;;;;;;8.89;58.35;149531.13;5056678;28;20032;-65
2023/04/09 04:45:21;;;;;;;28.65;19.25;;;;;;;8.72;58.89;149490.19;5054241;28;20037;-64
2023/04/09 04:47:47;;;;;;;27.27;19.52;;;;;;;8.73;58.94;149491.44;5047259;28;20226;-64
2023/04/09 04:50:12;;;;;;;27.35;19.42;;;;;;;8.97;57.69;149551.63;5043445;28;20029;-65
2023/04/09 04:52:39;;;;;;;31.02;19.75;;;;;;;8.94;57.92;149543.94;5061326;28;20436;-64
2023/04/09 04:55:05;;;;;;;28.55;20.33;;;;;;;8.90;57.42;149533.72;5048593;28;20029;-64
2023/04/09 04:57:31;;;;;;;29.02;19.80;;;;;;;8.73;58.07;149492.69;5052084;28;20190;-64
2023/04/09 04:59:56;;;;;;;29.52;20.13;;;;;;;8.98;58.61;149554.22;5063085;28;20048;-66
2023/04/09 05:02:22;;;;;;;30.70;20.60;;;;;;;8.97;58.27;149551.63;5062366;28;20033;-63
2023/04/09 05:04:47;;;;;;;30.27;19.95;;;;;;;9.21;57.18;149611.84;5043437;28;20033;-63
2023/04/09 05:07:13;;;;;;;31.17;19.48;;;;;;;9.23;57.39;149615.69;5057934;28;20029;-63
2023/04/09 05:09:39;;;;;;;33.05;22.05;;;;;;;9.25;56.99;149622.09;5052391;28;20380;-63
2023/04/09 05:12:04;;;;;;;30.40;20.83;;;;;;;9.11;57.85;149587.50;5047890;28;20221;-64
2023/04/09 05:14:30;;;;;;;32.30;20.80;;;;;;;9.09;58.42;149582.41;5061758;28;20048;-65
2023/04/09 05:16:55;;;;;;;28.05;20.42;;;;;;;9.12;58.05;149590.06;5041856;28;20029;-65
2023/04/09 05:19:21;;;;;;;27.58;20.25;;;;;;;9.28;57.73;149629.78;5059320;28;20028;-65
2023/04/09 05:21:47;;;;;;;26.60;19.77;;;;;;;9.38;57.29;149654.13;5051817;28;20034;-65
2023/04/09 05:24:12;;;;;;;34.40;20.55;;;;;;;9.45;57.31;149672.06;5049624;28;20025;-65
2023/04/09 05:26:38;;;;;;;29.88;19.33;;;;;;;9.79;56.63;149756.63;5061241;28;20032;-66
2023/04/09 05:29:03;;;;;;;30.23;19.65;;;;;;;9.91;56.37;149786.09;5058506;28;20284;-65
2023/04/09 05:31:29;;;;;;;32.25;20.52;;;;;;;10.02;55.50;149814.31;5066741;28;20052;-65
2023/04/09 05:33:54;;;;;;;30.70;19.40;;;;;;;10.41;54.88;149909.25;5070370;28;20037;-66
2023/04/09 05:36:20;;;;;;;25.90;19.33;;;;;;;10.37;54.20;149900.25;5055296;28;20069;-65
2023/04/09 05:38:46;;;;;;;32.63;20.02;;;;;;;10.42;54.54;149913.09;5045847;28;20028;-65
2023/04/09 05:41:12;;;;;;;31.48;19.77;;;;;;;10.67;54.01;149974.63;5062569;28;20028;-65
2023/04/09 05:43:38;;;;;;;30.58;18.73;;;;;;;10.70;54.44;149982.31;5044665;28;20385;-65
2023/04/09 05:46:04;;;;;;;28.13;18.63;;;;;;;10.83;53.79;150014.38;5056690;28;20171;-65
2023/04/09 05:48:30;;;;;;;29.42;18.88;;;;;;;10.48;53.94;149927.19;5054032;28;20037;-65
2023/04/09 05:50:55;;;;;;;26.13;19.40;;;;;;;10.43;53.98;149915.66;5047214;28;20028;-64
2023/04/09 05:53:21;;;;;;;26.88;19.25;;;;;;;10.46;53.96;149922.03;5062965;28;20100;-64
2023/04/09 05:55:50;;;;;;;27.77;18.42;;;;;;;10.49;54.66;149931.03;5043265;28;20040;-64
2023/04/09 05:58:17;;;;;;;31.40;19.13;;;;;;;10.24;54.18;149868.16;5057654;28;20029;-66
2023/04/09 06:00:43;;;;;;;37.45;18.80;;;;;;;10.49;54.81;149931.03;5052281;28;20029;-65
2023/04/09 06:03:09;;;;;;;25.95;18.38;;;;;;;10.60;53.87;149957.94;5048569;28;20029;-65
2023/04/09 06:05:35;;;;;;;30.88;19.77;;;;;;;10.34;54.35;149892.56;5062924;28;20055;-63
2023/04/09 06:08:01;;;;;;;31.35;19.23;;;;;;;10.34;54.54;149893.81;5062124;28;20363;-64
2023/04/09 06:10:26;;;;;;;29.83;19.42;;;;;;;10.18;55.06;149854.03;5045831;28;20338;-64
2023/04/09 06:12:52;;;;;;;29.52;18.38;;;;;;;10.44;54.65;149918.19;5053239;28;20040;-65
2023/04/09 06:15:18;;;;;;;29.80;18.77;;;;;;;10.59;53.81;149955.41;5055758;28;20206;-65
2023/04/09 06:17:44;;;;;;;27.83;17.98;;;;;;;10.75;53.31;149993.91;5045139;28;20029;-64
2023/04/09 06:20:10;;;;;;;27.13;18.25;;;;;;;11.02;52.91;150061.88;5061455;28;20025;-65
2023/04/09 06:22:36;;;;;;;32.38;20.02;;;;;;;10.95;53.36;150045.19;5044819;28;20187;-65
2023/04/09 06:25:02;;;;;;;32.97;18.90;;;;;;;11.13;53.12;150088.78;5055156;28;20051;-65
2023/04/09 06:27:28;;;;;;;35.45;21.17;;;;;;;11.06;53.12;150072.13;5062467;28;20025;-66
2023/04/09 06:29:53;;;;;;;32.50;20.73;;;;;;;10.98;53.17;150052.88;5076523;28;20033;-66
2023/04/09 06:32:19;;;;;;;28.38;19.73;;;;;;;10.86;53.01;150023.38;5075857;28;20103;-65
2023/04/09 06:34:45;;;;;;;29.10;19.92;;;;;;;10.82;53.89;150011.84;5063693;28;20365;-65
2023/04/09 06:37:10;;;;;;;32.63;20.10;;;;;;;11.04;53.40;150066.97;5048281;28;20080;-64
2023/04/09 06:39:36;;;;;;;30.20;19.65;;;;;;;11.23;53.30;150115.75;5051758;28;20034;-65
2023/04/09 06:42:02;;;;;;;25.95;19.83;;;;;;;11.10;52.48;150082.41;5062300;28;20048;-65
2023/04/09 06:44:29;;;;;;;31.08;19.70;;;;;;;11.13;52.25;150088.78;5061505;28;20037;-65
2023/04/09 06:46:55;;;;;;;38.33;20.48;;;;;;;11.27;52.22;150123.44;5042688;28;20049;-65
2023/04/09 06:49:20;;;;;;;39.72;19.40;;;;;;;11.39;52.23;150155.53;5057602;28;20103;-66
2023/04/09 06:51:46;;;;;;;32.35;20.00;;;;;;;11.34;51.86;150142.72;5062475;28;20071;-66
2023/04/09 06:54:12;;;;;;;27.67;18.85;;;;;;;11.48;51.77;150177.31;5058732;28;20036;-66
2023/04/09 06:56:37;;;;;;;28.60;19.48;;;;;;;12.09;49.85;150328.88;5047027;28;20037;-65
2023/04/09 06:59:03;;;;;;;28.35;19.38;;;;;;;12.80;49.70;150504.78;5065769;28;20240;-65
2023/04/09 07:01:29;;;;;;;32.58;18.20;;;;;;;13.23;47.15;150614.00;5049493;28;20040;-66
2023/04/09 07:03:54;;;;;;;29.55;19.15;;;;;;;13.76;47.27;150745.16;5057537;28;20040;-66
2023/04/09 07:06:20;;;;;;;28.20;18.40;;;;;;;14.21;45.68;150858.31;5058635;28;20310;-66
2023/04/09 07:08:46;;;;;;;31.73;18.25;;;;;;;14.62;43.97;150961.25;5063283;28;20037;-65
2023/04/09 07:11:11;;;;;;;27.15;17.38;;;;;;;15.10;43.79;151079.63;5065498;28;20031;-66
2023/04/09 07:13:37;;;;;;;28.40;17.30;;;;;;;14.92;43.77;151035.88;5047879;28;20033;-67
2023/04/09 07:16:03;;;;;;;41.55;19.75;;;;;;;14.97;43.00;151048.72;5045446;28;20025;-66
2023/04/09 07:18:29;;;;;;;27.90;17.83;;;;;;;15.66;41.47;151221.19;5045524;28;20022;-65
2023/04/09 07:20:55;;;;;;;32.50;16.73;;;;;;;16.04;41.09;151316.50;5048459;28;20029;-66
2023/04/09 07:23:21;;;;;;;30.27;15.98;;;;;;;15.76;41.43;151245.66;5083768;28;20039;-65
2023/04/09 07:25:47;;;;;;;29.00;15.13;;;;;;;14.99;41.22;151053.88;5066549;28;20033;-65
2023/04/09 07:28:12;;;;;;;27.75;15.32;;;;;;;16.15;40.07;151342.28;5051085;28;20041;-65
2023/04/09 07:30:39;;;;;;;25.13;16.02;;;;;;;15.18;41.58;151100.22;5054629;28;20047;-67
2023/04/09 07:33:04;;;;;;;30.25;16.73;;;;;;;15.08;40.91;151075.75;5063433;28;20033;-66
2023/04/09 07:35:31;;;;;;;24.90;15.68;;;;;;;14.85;41.78;151017.88;5045411;28;20075;-66
2023/04/09 07:37:57;;;;;;;28.55;15.43;;;;;;;15.14;41.58;151089.91;5065427;28;20033;-67
2023/04/09 07:40:23;;;;;;;27.88;13.02;;;;;;;15.18;40.29;151101.47;5049090;28;20087;-68
2023/04/09 07:42:49;;;;;;;17.60;10.43;;;;;;;15.17;40.02;151097.63;5055438;28;20087;-67
2023/04/09 07:45:16;;;;;;;15.43;10.80;;;;;;;14.87;39.91;151023.00;5059276;28;20033;-68
2023/04/09 07:47:41;;;;;;;18.60;10.80;;;;;;;14.99;39.90;151053.88;5046411;28;20029;-68
2023/04/09 07:50:07;;;;;;;15.30;10.90;;;;;;;15.00;40.33;151056.44;5064856;28;20021;-65
2023/04/09 07:52:33;;;;;;;19.30;12.32;;;;;;;15.12;39.24;151084.72;5048017;28;20028;-67
2023/04/09 07:54:59;;;;;;;20.38;11.65;;;;;;;14.87;39.81;151023.00;5056587;28;20025;-67
2023/04/09 07:57:25;;;;;;;18.38;11.73;;;;;;;14.74;40.09;150989.56;5068486;28;20325;-66
2023/04/09 07:59:52;;;;;;;15.05;11.00;;;;;;;14.94;39.84;151041.00;5081357;28;20024;-67
2023/04/09 08:02:17;;;;;;;14.63;10.32;;;;;;;15.04;38.78;151064.19;5064187;28;20241;-68
2023/04/09 08:04:43;;;;;;;22.13;11.73;;;;;;;15.59;39.77;151201.88;5046877;28;20101;-67
2023/04/09 08:07:09;;;;;;;22.80;12.73;;;;;;;15.53;39.43;151187.69;5057498;28;20029;-67
2023/04/09 08:09:34;;;;;;;15.07;11.55;;;;;;;15.60;38.92;151205.72;5056106;28;20033;-67
2023/04/09 08:12:00;;;;;;;18.10;11.70;;;;;;;15.57;39.13;151196.75;5044268;28;20036;-67
2023/04/09 08:14:26;;;;;;;17.58;11.40;;;;;;;15.84;39.34;151265.00;5059675;28;20029;-67
2023/04/09 08:16:51;;;;;;;18.90;12.55;;;;;;;15.61;39.40;151208.31;5063313;28;20097;-66
2023/04/09 08:19:18;;;;;;;21.42;12.77;;;;;;;15.62;39.72;151209.56;5058708;28;20045;-69
2023/04/09 08:21:47;;;;;;;23.98;14.23;;;;;;;15.29;39.79;151127.22;5044561;28;20037;-67
2023/04/09 08:24:13;;;;;;;20.13;12.60;;;;;;;14.42;41.00;150909.72;5046857;28;20075;-68
2023/04/09 08:26:39;;;;;;;19.17;12.98;;;;;;;15.32;40.32;151134.91;5044352;28;20029;-67
2023/04/09 08:29:06;;;;;;;20.27;12.60;;;;;;;15.20;40.00;151105.34;5062213;28;20045;-69
2023/04/09 08:31:32;;;;;;;16.52;11.98;;;;;;;15.44;39.17;151164.56;5059943;28;20339;-67
2023/04/09 08:33:57;;;;;;;18.23;11.68;;;;;;;15.62;40.00;151210.91;5066594;28;20099;-68
2023/04/09 08:36:23;;;;;;;19.00;12.25;;;;;;;15.92;38.54;151285.63;5070256;28;20212;-67
2023/04/09 08:38:49;;;;;;;18.77;11.35;;;;;;;16.54;38.21;151440.13;5069325;28;20025;-67
2023/04/09 08:41:23;;;;;;;27.48;11.50;;;;;;;16.63;37.31;151462.03;5053834;28;20033;-69
2023/04/09 08:43:50;;;;;;;20.45;11.77;;;;;;;16.58;37.92;151450.44;5070800;28;20024;-68
2023/04/09 08:46:16;;;;;;;19.90;11.80;;;;;;;16.05;38.79;151319.06;5070892;28;20244;-69
2023/04/09 08:48:47;;;;;;;21.73;13.32;;;;;;;16.18;38.60;151351.28;5070399;28;20029;-68
2023/04/09 08:51:17;;;;;;;18.15;13.10;;;;;;;16.15;38.35;151343.53;5065839;28;20030;-68
2023/04/09 08:54:04;;;;;;;20.60;12.18;;;;;;;15.69;38.17;151227.59;5066539;28;20029;-67
2023/04/09 08:56:30;;;;;;;15.90;12.20;;;;;;;15.45;39.79;151167.09;5079490;28;20067;-67
2023/04/09 08:58:55;;;;;;;17.95;11.73;;;;;;;15.96;38.97;151295.91;5045434;28;20168;-68
2023/04/09 09:01:29;;;;;;;13.52;10.85;;;;;;;16.46;38.99;151419.53;5057520;28;20048;-67
2023/04/09 09:04:03;;;;;;;15.43;10.25;;;;;;;16.46;38.15;151419.53;5063752;28;20029;-67
2023/04/09 09:06:31;;;;;;;14.30;9.85;;;;;;;16.62;36.77;151459.50;5056329;28;20029;-69
2023/04/09 09:09:08;;;;;;;14.45;9.70;;;;;;;16.73;36.49;151489.09;5046099;28;20033;-69
2023/04/09 09:11:35;;;;;;;20.65;10.65;;;;;;;16.95;36.63;151541.97;5063450;28;20032;-68
2023/04/09 09:14:06;;;;;;;19.38;10.40;;;;;;;16.91;36.37;151532.94;5043754;28;20033;-71
2023/04/09 09:16:44;;;;;;;15.10;9.87;;;;;;;17.20;37.78;151606.41;5041735;28;20036;-68
2023/04/09 09:19:32;;;;;;;18.50;10.70;;;;;;;17.05;36.75;151567.75;5055703;28;20340;-69
2023/04/09 09:22:00;;;;;;;17.08;10.38;;;;;;;16.99;37.39;151552.28;5052283;28;20071;-68
2023/04/09 09:24:26;;;;;;;14.57;10.18;;;;;;;16.98;36.41;151550.97;5049777;28;20028;-68
2023/04/09 09:26:56;;;;;;;18.02;10.32;;;;;;;16.42;37.23;151410.53;5061517;28;20087;-67
2023/04/09 09:29:21;;;;;;;13.05;11.10;;;;;;;16.32;38.28;151384.78;5043007;28;20046;-68
2023/04/09 09:31:49;;;;;;;16.75;10.57;;;;;;;15.94;37.48;151289.47;5056519;28;20060;-66
2023/04/09 09:34:17;;;;;;;17.63;10.95;;;;;;;15.24;38.75;151115.63;5042905;28;20451;-68
2023/04/09 09:36:43;;;;;;;15.73;11.15;;;;;;;16.01;38.73;151307.50;5050613;28;20198;-66
2023/04/09 09:39:11;;;;;;;13.45;9.98;;;;;;;15.97;37.99;151298.47;5062698;28;20310;-67
2023/04/09 09:41:38;;;;;;;14.82;10.25;;;;;;;16.27;37.68;151373.16;5062929;28;20032;-68
2023/04/09 09:44:06;;;;;;;14.45;10.63;;;;;;;16.25;36.78;151368.03;5043268;28;20035;-67
2023/04/09 09:46:38;;;;;;;14.23;10.70;;;;;;;15.43;38.32;151163.25;5058257;28;20035;-67
2023/04/09 09:49:04;;;;;;;15.35;10.05;;;;;;;15.58;38.01;151200.59;5066911;28;20025;-67
2023/04/09 09:51:31;;;;;;;16.27;11.23;;;;;;;15.63;38.72;151213.44;5069527;28;20092;-66
2023/04/09 09:53:57;;;;;;;14.43;10.18;;;;;;;15.62;37.86;151209.56;5071278;28;20347;-67
2023/04/09 09:56:37;;;;;;;14.20;10.52;;;;;;;15.71;38.41;151232.78;5072228;28;20031;-66
2023/04/09 09:59:12;;;;;;;16.45;10.10;;;;;;;15.97;38.19;151298.47;5070760;28;20047;-66
2023/04/09 10:01:39;;;;;;;30.42;19.27;;;;;;;15.67;38.25;151222.47;5071203;28;20023;-67
2023/04/09 10:04:12;;;;;;;19.58;11.52;;;;;;;15.98;38.60;151301.06;5071106;28;20091;-66
2023/04/09 10:06:41;;;;;;;17.90;11.57;;;;;;;16.21;37.85;151358.97;5071528;28;20036;-66
2023/04/09 10:09:08;;;;;;;30.55;12.75;;;;;;;16.41;38.06;151406.66;5074617;28;20025;-67
2023/04/09 10:11:35;;;;;;;17.17;11.00;;;;;;;16.45;37.29;151416.97;5061681;28;20035;-67
2023/04/09 10:14:01;;;;;;;15.13;12.25;;;;;;;16.28;36.96;151375.75;5043640;28;20283;-66
2023/04/09 10:16:27;;;;;;;19.10;11.00;;;;;;;16.42;36.92;151409.22;5057950;28;20044;-66
2023/04/09 10:18:55;;;;;;;13.35;11.10;;;;;;;16.07;36.78;151322.94;5062403;28;20349;-65
2023/04/09 10:21:52;;;;;;;12.82;10.93;;;;;;;16.64;36.66;151464.63;5068423;28;20104;-66
2023/04/09 10:24:18;;;;;;;15.77;10.95;;;;;;;16.28;36.63;151375.75;5071569;28;20050;-65
2023/04/09 10:26:43;;;;;;;15.73;9.98;;;;;;;16.30;36.69;151379.59;5065271;28;20032;-65
2023/04/09 10:29:15;;;;;;;15.40;11.02;;;;;;;16.23;36.66;151362.84;5065796;28;20043;-65
2023/04/09 10:31:54;;;;;;;14.95;10.77;;;;;;;16.11;37.05;151333.25;5074416;28;20032;-66
2023/04/09 10:34:22;;;;;;;15.13;10.95;;;;;;;16.46;36.68;151419.53;5077338;28;20387;-67
2023/04/09 10:36:58;;;;;;;16.38;11.02;;;;;;;16.70;36.25;151481.38;5081530;28;20028;-66
2023/04/09 10:39:29;;;;;;;16.83;10.80;;;;;;;16.67;37.01;151472.34;5066018;28;20033;-64
2023/04/09 10:41:57;;;;;;;15.63;11.30;;;;;;;15.70;36.60;151231.50;5069960;28;20205;-65
2023/04/09 10:44:25;;;;;;;14.30;11.05;;;;;;;15.92;36.71;151285.63;5071667;28;20031;-66
2023/04/09 10:46:55;;;;;;;17.35;10.25;;;;;;;15.96;37.37;151294.59;5073742;28;20056;-66
2023/04/09 10:49:22;;;;;;;18.52;11.35;;;;;;;15.81;37.06;151257.28;5070210;28;20181;-66
2023/04/09 10:52:00;;;;;;;16.55;11.27;;;;;;;15.56;36.76;151194.16;5071449;28;20209;-65
2023/04/09 10:54:32;;;;;;;15.50;11.43;;;;;;;15.57;36.90;151196.75;5077217;28;20076;-66
2023/04/09 10:57:06;;;;;;;12.80;10.60;;;;;;;15.48;37.54;151176.13;5064180;28;20096;-67
2023/04/09 10:59:37;;;;;;;17.23;11.00;;;;;;;15.53;37.92;151189.03;5046062;28;20056;-67
2023/04/09 11:02:07;;;;;;;14.65;10.57;;;;;;;15.38;37.52;151149.09;5072169;28;20028;-66
2023/04/09 11:05:12;;;;;;;13.93;11.18;;;;;;;15.14;37.54;151091.19;5073848;28;20040;-65
2023/04/09 11:07:44;;;;;;;16.17;11.18;;;;;;;15.12;38.20;151084.72;5066817;28;20044;-66
2023/04/09 11:10:11;;;;;;;15.35;10.77;;;;;;;14.81;38.49;151008.84;5070333;28;20063;-66
2023/04/09 11:12:37;;;;;;;15.77;10.93;;;;;;;15.12;38.11;151084.72;5076553;28;20017;-65
2023/04/09 11:15:03;;;;;;;18.15;11.13;;;;;;;14.96;37.94;151044.84;5079212;28;20275;-65
2023/04/09 11:17:34;;;;;;;15.07;10.90;;;;;;;14.63;38.75;150963.78;5072019;28;20023;-66